Time,TemperatureF,DewpointF,PressureIn,WindDirection,WindDirectionDegrees,WindSpeedMPH,WindSpeedGustMPH,Humidity,HourlyPrecipIn,Conditions,Clouds,dailyrainin,SoftwareType,DateUTC
2013-03-07 00:00:00,24.4,5.2,29.81,WNW,286,4.0,4.9,43,0.00,,OVC014,0.04,VWS V14.01,2013-03-07 05:00:00,
2013-03-07 00:01:00,24.4,5.2,29.81,WNW,286,4.0,4.0,43,0.00,,OVC012,0.00,VWS V14.01,2013-03-07 05:01:00,
2013-03-07 00:06:00,24.4,5.2,29.81,NW,307,4.0,4.0,43,0.00,,OVC012,0.00,VWS V14.01,2013-03-07 05:06:00,
2013-03-07 00:11:00,24.3,5.0,29.81,NW,314,5.4,5.4,43,0.00,,OVC012,0.00,VWS V14.01,2013-03-07 05:11:00,
2013-03-07 00:16:00,24.3,5.0,29.81,North,0,4.0,4.0,43,0.00,,OVC012,0.00,VWS V14.01,2013-03-07 05:16:00,
2013-03-07 00:21:00,24.4,5.2,29.81,NE,52,3.1,3.1,43,0.00,,OVC012,0.00,VWS V14.01,2013-03-07 05:21:00,
2013-03-07 00:27:00,24.4,5.2,29.81,NNE,16,2.7,3.1,43,0.00,,OVC012,0.00,VWS V14.01,2013-03-07 05:27:00,
2013-03-07 00:32:00,24.3,5.0,29.81,NE,34,2.7,2.7,43,0.00,,OVC012,0.00,VWS V14.01,2013-03-07 05:32:00,
2013-03-07 00:37:00,24.1,4.8,29.81,ENE,62,5.4,5.4,43,0.00,,OVC012,0.00,VWS V14.01,2013-03-07 05:37:00,
2013-03-07 00:42:00,24.1,4.8,29.81,North,9,3.1,5.4,43,0.00,,OVC012,0.00,VWS V14.01,2013-03-07 05:42:00,
2013-03-07 00:47:00,24.3,5.0,29.81,WNW,291,3.1,4.9,43,0.00,,OVC012,0.00,VWS V14.01,2013-03-07 05:47:00,
2013-03-07 00:52:00,24.1,4.8,29.81,NNE,15,2.7,2.7,43,0.00,,OVC012,0.00,VWS V14.01,2013-03-07 05:52:00,
2013-03-07 00:57:00,24.3,5.0,29.81,WNW,295,4.0,4.0,43,0.00,,OVC012,0.00,VWS V14.01,2013-03-07 05:57:00,
2013-03-07 01:02:00,24.3,5.0,29.81,North,0,7.6,7.6,43,0.00,,OVC012,0.00,VWS V14.01,2013-03-07 06:02:00,
2013-03-07 01:07:00,24.1,4.8,29.81,WNW,293,3.6,3.6,43,0.00,,OVC012,0.00,VWS V14.01,2013-03-07 06:07:00,
2013-03-07 01:12:00,24.1,4.8,29.81,WNW,295,6.3,6.3,43,0.00,,OVC012,0.00,VWS V14.01,2013-03-07 06:12:00,
2013-03-07 01:17:00,24.1,4.8,29.78,NW,321,0.0,0.0,43,0.00,,OVC012,0.00,VWS V14.01,2013-03-07 06:17:00,
2013-03-07 01:23:00,23.7,4.5,29.78,NW,318,3.1,3.1,43,0.00,,OVC012,0.00,VWS V14.01,2013-03-07 06:23:00,
2013-03-07 01:28:00,23.7,4.5,29.78,West,278,2.2,4.9,43,0.00,,OVC012,0.00,VWS V14.01,2013-03-07 06:28:00,
2013-03-07 01:33:00,23.7,5.0,29.81,NNE,23,2.2,2.2,44,0.00,,OVC012,0.00,VWS V14.01,2013-03-07 06:33:00,
2013-03-07 01:38:00,23.7,5.0,29.81,North,353,3.1,4.0,44,0.00,,OVC012,0.00,VWS V14.01,2013-03-07 06:38:00,
2013-03-07 01:43:00,23.7,4.5,29.81,ENE,57,5.4,5.4,43,0.00,,OVC012,0.00,VWS V14.01,2013-03-07 06:43:00,
2013-03-07 01:48:00,23.9,4.7,29.81,NE,34,6.3,6.3,43,0.00,,OVC012,0.00,VWS V14.01,2013-03-07 06:48:00,
2013-03-07 01:53:00,23.9,4.7,29.81,NNE,29,3.1,3.1,43,0.00,,OVC012,0.00,VWS V14.01,2013-03-07 06:53:00,
2013-03-07 01:58:00,23.9,4.7,29.81,NE,52,3.1,3.1,43,0.00,,OVC012,0.00,VWS V14.01,2013-03-07 06:58:00,
2013-03-07 02:03:00,23.9,4.7,29.81,NNE,12,0.0,2.7,43,0.00,,BKN012,0.00,VWS V14.01,2013-03-07 07:03:00,
2013-03-07 02:09:00,24.1,4.3,29.81,NE,41,0.0,0.0,42,0.00,,BKN012,0.00,VWS V14.01,2013-03-07 07:09:00,
2013-03-07 02:14:00,23.7,4.0,29.81,NE,41,0.0,0.0,42,0.00,,BKN012,0.00,VWS V14.01,2013-03-07 07:14:00,
2013-03-07 02:19:00,23.5,3.8,29.81,NE,41,0.0,0.0,42,0.00,,BKN012,0.00,VWS V14.01,2013-03-07 07:19:00,
2013-03-07 02:24:00,23.2,3.5,29.81,NE,41,0.0,0.0,42,0.00,,BKN012,0.00,VWS V14.01,2013-03-07 07:24:00,
2013-03-07 02:29:00,22.8,4.2,29.81,NE,49,3.1,3.1,44,0.00,,BKN012,0.00,VWS V14.01,2013-03-07 07:29:00,
2013-03-07 02:34:00,23.0,4.8,29.81,NE,49,2.7,2.7,45,0.00,,BKN012,0.00,VWS V14.01,2013-03-07 07:34:00,
2013-03-07 02:39:00,23.2,5.0,29.81,NNE,12,0.0,0.0,45,0.00,,BKN012,0.00,VWS V14.01,2013-03-07 07:39:00,
2013-03-07 02:45:00,23.7,4.5,29.81,NNE,20,2.7,2.7,43,0.00,,BKN012,0.00,VWS V14.01,2013-03-07 07:45:00,
2013-03-07 02:50:00,23.7,4.5,29.81,NNE,28,3.1,3.1,43,0.00,,BKN012,0.00,VWS V14.01,2013-03-07 07:50:00,
2013-03-07 02:55:00,23.9,4.2,29.81,NE,44,5.8,5.8,42,0.00,,BKN012,0.00,VWS V14.01,2013-03-07 07:55:00,
2013-03-07 03:00:00,23.9,4.2,29.81,NNW,344,3.6,3.6,42,0.00,,BKN012,0.00,VWS V14.01,2013-03-07 08:00:00,
2013-03-07 03:05:00,23.9,4.2,29.81,NNE,28,0.0,0.0,42,0.00,,OVC017,0.00,VWS V14.01,2013-03-07 08:05:00,
2013-03-07 03:10:00,24.1,4.3,29.81,NE,41,4.0,4.0,42,0.00,,OVC017,0.00,VWS V14.01,2013-03-07 08:10:00,
2013-03-07 03:15:00,24.1,4.3,29.81,NNE,22,8.1,8.1,42,0.00,,OVC017,0.00,VWS V14.01,2013-03-07 08:15:00,
2013-03-07 03:20:00,24.1,4.3,29.81,NNW,331,4.0,4.9,42,0.00,,OVC017,0.00,VWS V14.01,2013-03-07 08:20:00,
2013-03-07 03:25:00,24.1,4.3,29.81,West,273,2.7,2.7,42,0.00,,OVC017,0.00,VWS V14.01,2013-03-07 08:25:00,
2013-03-07 03:30:00,23.9,4.2,29.81,NW,319,2.7,2.7,42,0.00,,OVC017,0.00,VWS V14.01,2013-03-07 08:30:00,
2013-03-07 03:36:00,23.7,4.0,29.81,NNW,340,2.2,2.2,42,0.00,,OVC017,0.00,VWS V14.01,2013-03-07 08:36:00,
2013-03-07 03:41:00,23.7,4.0,29.81,NNE,14,4.0,4.0,42,0.00,,OVC017,0.00,VWS V14.01,2013-03-07 08:41:00,
2013-03-07 03:46:00,23.9,4.2,29.81,North,6,0.0,2.2,42,0.00,,OVC017,0.00,VWS V14.01,2013-03-07 08:46:00,
2013-03-07 03:51:00,23.5,3.8,29.84,North,6,0.0,0.0,42,0.00,,OVC017,0.00,VWS V14.01,2013-03-07 08:51:00,
2013-03-07 03:56:00,23.4,3.7,29.84,North,6,0.0,0.0,42,0.00,,OVC017,0.00,VWS V14.01,2013-03-07 08:56:00,
2013-03-07 04:01:00,23.4,4.2,29.84,NW,315,3.1,3.1,43,0.00,,OVC013,0.00,VWS V14.01,2013-03-07 09:01:00,
2013-03-07 04:06:00,23.2,4.0,29.84,North,2,0.0,0.0,43,0.00,,OVC013,0.00,VWS V14.01,2013-03-07 09:06:00,
2013-03-07 04:11:00,22.8,3.7,29.84,NNE,17,3.6,3.6,43,0.00,,OVC013,0.00,VWS V14.01,2013-03-07 09:11:00,
2013-03-07 04:16:00,22.8,4.2,29.84,NNE,25,2.7,2.7,44,0.00,,OVC013,0.00,VWS V14.01,2013-03-07 09:16:00,
2013-03-07 04:21:00,23.0,4.8,29.84,North,4,4.0,4.0,45,0.00,,OVC013,0.00,VWS V14.01,2013-03-07 09:21:00,
2013-03-07 04:27:00,23.0,4.8,29.84,NNW,333,3.1,3.6,45,0.00,,OVC013,0.00,VWS V14.01,2013-03-07 09:27:00,
2013-03-07 04:32:00,23.9,4.2,29.84,NNE,30,5.8,5.8,42,0.00,,OVC013,0.00,VWS V14.01,2013-03-07 09:32:00,
2013-03-07 04:37:00,24.1,4.3,29.84,NNE,20,4.9,4.9,42,0.00,,OVC013,0.00,VWS V14.01,2013-03-07 09:37:00,
2013-03-07 04:42:00,24.1,4.3,29.84,North,357,2.7,4.0,42,0.00,,OVC013,0.00,VWS V14.01,2013-03-07 09:42:00,
2013-03-07 04:47:00,23.9,4.2,29.84,NNE,29,0.0,0.0,42,0.00,,OVC013,0.00,VWS V14.01,2013-03-07 09:47:00,
2013-03-07 04:52:00,23.9,4.2,29.84,NNE,26,2.7,2.7,42,0.00,,OVC013,0.00,VWS V14.01,2013-03-07 09:52:00,
2013-03-07 04:57:00,23.9,4.2,29.84,North,5,2.7,4.0,42,0.00,,OVC013,0.00,VWS V14.01,2013-03-07 09:57:00,
2013-03-07 05:02:00,23.9,4.2,29.84,North,357,3.1,3.1,42,0.00,,OVC013,0.00,VWS V14.01,2013-03-07 10:02:00,
2013-03-07 05:07:00,23.5,3.8,29.84,West,265,0.0,5.4,42,0.00,,OVC013,0.00,VWS V14.01,2013-03-07 10:07:00,
2013-03-07 05:12:00,23.5,4.3,29.84,NE,38,0.0,0.0,43,0.00,,OVC013,0.00,VWS V14.01,2013-03-07 10:12:00,
2013-03-07 05:17:00,23.4,4.2,29.84,WNW,303,3.1,3.1,43,0.00,,OVC013,0.00,VWS V14.01,2013-03-07 10:17:00,
2013-03-07 05:22:00,23.4,4.2,29.84,WNW,299,0.0,0.0,43,0.00,,OVC013,0.00,VWS V14.01,2013-03-07 10:22:00,
2013-03-07 05:27:00,23.4,4.2,29.84,WNW,288,3.6,3.6,43,0.00,,OVC013,0.00,VWS V14.01,2013-03-07 10:27:00,
2013-03-07 05:32:00,23.4,4.2,29.87,NE,50,5.4,5.4,43,0.00,,OVC013,0.00,VWS V14.01,2013-03-07 10:32:00,
2013-03-07 05:37:00,23.5,4.3,29.87,North,2,4.0,4.0,43,0.00,,OVC013,0.00,VWS V14.01,2013-03-07 10:37:00,
2013-03-07 05:42:00,23.5,4.3,29.87,NNE,19,2.7,2.7,43,0.00,,OVC013,0.00,VWS V14.01,2013-03-07 10:42:00,
2013-03-07 05:48:00,23.2,4.0,29.87,NNE,30,2.7,2.7,43,0.00,,OVC013,0.00,VWS V14.01,2013-03-07 10:48:00,
2013-03-07 05:53:00,23.0,4.3,29.87,NE,44,5.4,5.4,44,0.00,,OVC013,0.00,VWS V14.01,2013-03-07 10:53:00,
2013-03-07 05:58:00,23.2,4.5,29.87,NNE,19,2.7,2.7,44,0.00,,OVC013,0.00,VWS V14.01,2013-03-07 10:58:00,
2013-03-07 06:03:00,23.2,4.5,29.87,NNE,31,5.4,5.4,44,0.00,,OVC015,0.00,VWS V14.01,2013-03-07 11:03:00,
2013-03-07 06:08:00,23.2,4.5,29.87,NNW,341,3.1,3.1,44,0.00,,OVC015,0.00,VWS V14.01,2013-03-07 11:08:00,
2013-03-07 06:13:00,23.4,4.7,29.87,North,353,0.0,3.1,44,0.00,,OVC015,0.00,VWS V14.01,2013-03-07 11:13:00,
2013-03-07 06:18:00,23.4,4.7,29.87,NNE,31,0.0,0.0,44,0.00,,OVC015,0.00,VWS V14.01,2013-03-07 11:18:00,
2013-03-07 06:23:00,23.0,4.3,29.87,North,357,0.0,2.7,44,0.00,,OVC015,0.00,VWS V14.01,2013-03-07 11:23:00,
2013-03-07 06:28:00,23.0,4.3,29.87,WNW,302,3.6,3.6,44,0.00,,OVC015,0.00,VWS V14.01,2013-03-07 11:28:00,
2013-03-07 06:33:00,23.2,4.0,29.87,NNW,339,4.0,4.0,43,0.00,,OVC015,0.00,VWS V14.01,2013-03-07 11:33:00,
2013-03-07 06:38:00,23.2,4.0,29.87,North,350,0.0,0.0,43,0.00,,OVC015,0.00,VWS V14.01,2013-03-07 11:38:00,
2013-03-07 06:43:00,23.2,4.0,29.87,North,4,0.0,0.0,43,0.00,,OVC015,0.00,VWS V14.01,2013-03-07 11:43:00,
2013-03-07 06:49:00,23.0,3.8,29.87,North,4,2.7,2.7,43,0.00,,OVC015,0.00,VWS V14.01,2013-03-07 11:49:00,
2013-03-07 06:54:00,22.8,4.2,29.87,North,357,0.0,0.0,44,0.00,,OVC015,0.00,VWS V14.01,2013-03-07 11:54:00,
2013-03-07 06:59:00,22.8,4.2,29.87,NE,42,0.0,0.0,44,0.00,,OVC015,0.00,VWS V14.01,2013-03-07 11:59:00,
2013-03-07 07:04:00,22.8,4.2,29.87,NE,42,3.1,4.0,44,0.00,,OVC017,0.00,VWS V14.01,2013-03-07 12:04:00,
2013-03-07 07:09:00,22.8,4.2,29.87,NE,42,3.6,3.6,44,0.00,,OVC017,0.00,VWS V14.01,2013-03-07 12:09:00,
2013-03-07 07:14:00,23.2,4.0,29.87,NE,50,3.1,3.1,43,0.00,,OVC017,0.00,VWS V14.01,2013-03-07 12:14:00,
2013-03-07 07:19:00,23.9,4.2,29.87,NNE,12,2.7,2.7,42,0.00,,OVC017,0.00,VWS V14.01,2013-03-07 12:19:00,
2013-03-07 07:24:00,24.3,4.5,29.87,NE,37,4.5,4.5,42,0.00,,OVC017,0.00,VWS V14.01,2013-03-07 12:24:00,
2013-03-07 07:29:00,25.0,1.8,29.87,NNE,17,3.6,3.6,36,0.00,,OVC017,0.00,VWS V14.01,2013-03-07 12:29:00,
2013-03-07 07:34:00,25.7,2.5,29.87,NW,309,3.6,3.6,36,0.00,,OVC017,0.00,VWS V14.01,2013-03-07 12:34:00,
2013-03-07 07:41:00,25.7,2.5,29.87,WNW,301,2.7,2.7,36,0.00,,OVC017,0.00,VWS V14.01,2013-03-07 12:41:00,
2013-03-07 07:46:00,26.8,0.9,29.87,North,350,3.1,4.0,32,0.00,,OVC017,0.00,VWS V14.01,2013-03-07 12:46:00,
2013-03-07 07:51:00,27.1,0.5,29.87,NNE,18,5.4,5.4,31,0.00,,OVC017,0.00,VWS V14.01,2013-03-07 12:51:00,
2013-03-07 07:56:00,27.5,-1.3,29.87,WNW,302,4.0,4.0,28,0.00,,OVC017,0.00,VWS V14.01,2013-03-07 12:56:00,
2013-03-07 08:01:00,28.4,-2.1,29.90,WNW,291,5.4,5.4,26,0.00,,OVC017,0.00,VWS V14.01,2013-03-07 13:01:00,
2013-03-07 08:06:00,28.4,-2.1,29.90,East,86,2.2,3.6,26,0.00,,OVC017,0.00,VWS V14.01,2013-03-07 13:06:00,
2013-03-07 08:11:00,29.1,-2.3,29.90,NE,45,0.0,0.0,25,0.00,,OVC017,0.00,VWS V14.01,2013-03-07 13:11:00,
2013-03-07 08:16:00,29.1,-2.3,29.90,NE,45,0.0,0.0,25,0.00,,OVC017,0.00,VWS V14.01,2013-03-07 13:16:00,
2013-03-07 08:21:00,28.8,-0.2,29.90,NE,45,0.0,0.0,28,0.00,,OVC017,0.00,VWS V14.01,2013-03-07 13:21:00,
2013-03-07 08:27:00,29.3,0.2,29.90,North,353,0.0,0.0,28,0.00,,OVC017,0.00,VWS V14.01,2013-03-07 13:27:00,
2013-03-07 08:32:00,29.5,0.4,29.90,North,353,0.0,0.0,28,0.00,,OVC017,0.00,VWS V14.01,2013-03-07 13:32:00,
2013-03-07 08:37:00,30.0,0.9,29.90,WNW,303,0.0,0.0,28,0.00,,OVC017,0.00,VWS V14.01,2013-03-07 13:37:00,
2013-03-07 08:42:00,30.0,0.9,29.90,WNW,301,0.0,0.0,28,0.00,,OVC017,0.00,VWS V14.01,2013-03-07 13:42:00,
2013-03-07 08:47:00,30.7,1.5,29.90,WNW,301,0.0,0.0,28,0.00,,OVC017,0.00,VWS V14.01,2013-03-07 13:47:00,
2013-03-07 08:52:00,31.8,2.4,29.90,WNW,301,0.0,0.0,28,0.00,,OVC017,0.00,VWS V14.01,2013-03-07 13:52:00,
2013-03-07 08:57:00,33.1,1.1,29.90,WNW,301,0.0,0.0,25,0.00,,OVC017,0.00,VWS V14.01,2013-03-07 13:57:00,
2013-03-07 09:02:00,34.0,-0.9,29.90,North,353,3.6,3.6,22,0.00,,OVC017,0.00,VWS V14.01,2013-03-07 14:02:00,
2013-03-07 09:07:00,34.9,-0.1,29.90,WNW,296,0.0,3.6,22,0.00,,OVC017,0.00,VWS V14.01,2013-03-07 14:07:00,
2013-03-07 09:12:00,36.1,1.0,29.90,NNW,348,4.0,4.0,22,0.00,,OVC017,0.00,VWS V14.01,2013-03-07 14:12:00,
2013-03-07 09:17:00,36.1,1.0,29.90,WNW,302,3.1,3.1,22,0.00,,OVC017,0.00,VWS V14.01,2013-03-07 14:17:00,
2013-03-07 09:22:00,36.9,1.6,29.90,North,353,2.7,2.7,22,0.00,,OVC017,0.00,VWS V14.01,2013-03-07 14:22:00,
2013-03-07 09:27:00,36.9,1.6,29.90,North,357,0.0,0.0,22,0.00,,OVC017,0.00,VWS V14.01,2013-03-07 14:27:00,
2013-03-07 09:32:00,38.5,2.0,29.90,NNW,333,0.0,0.0,21,0.00,,OVC017,0.00,VWS V14.01,2013-03-07 14:32:00,
2013-03-07 09:37:00,38.5,2.0,29.90,NNW,339,2.2,2.2,21,0.00,,OVC017,0.00,VWS V14.01,2013-03-07 14:37:00,
2013-03-07 09:43:00,39.4,2.7,29.90,WNW,284,3.1,3.1,21,0.00,,OVC017,0.00,VWS V14.01,2013-03-07 14:43:00,
2013-03-07 09:48:00,39.7,3.0,29.90,WNW,291,3.6,4.9,21,0.00,,OVC017,0.00,VWS V14.01,2013-03-07 14:48:00,
2013-03-07 09:53:00,40.1,3.3,29.90,WNW,285,2.7,2.7,21,0.00,,OVC017,0.00,VWS V14.01,2013-03-07 14:53:00,
2013-03-07 09:58:00,39.6,2.9,29.90,West,272,0.0,3.1,21,0.00,,OVC017,0.00,VWS V14.01,2013-03-07 14:58:00,
2013-03-07 10:03:00,39.6,2.9,29.90,West,277,0.0,3.6,21,0.00,,BKN017,0.00,VWS V14.01,2013-03-07 15:03:00,
2013-03-07 10:08:00,40.5,3.6,29.90,West,278,3.1,3.1,21,0.00,,BKN017,0.00,VWS V14.01,2013-03-07 15:08:00,
2013-03-07 10:13:00,41.5,4.5,29.90,SSE,164,2.7,2.7,21,0.00,,BKN017,0.00,VWS V14.01,2013-03-07 15:13:00,
2013-03-07 10:18:00,43.9,5.4,29.90,East,100,2.7,2.7,20,0.00,,BKN017,0.00,VWS V14.01,2013-03-07 15:18:00,
2013-03-07 10:23:00,45.1,6.5,29.90,West,261,2.7,2.7,20,0.00,,BKN017,0.00,VWS V14.01,2013-03-07 15:23:00,
2013-03-07 10:28:00,47.3,7.1,29.90,SE,126,4.0,4.0,19,0.00,,BKN017,0.00,VWS V14.01,2013-03-07 15:28:00,
2013-03-07 10:33:00,48.2,7.9,29.90,East,88,3.1,4.0,19,0.00,,BKN017,0.00,VWS V14.01,2013-03-07 15:33:00,
2013-03-07 10:38:00,48.4,8.0,29.90,SE,124,3.1,5.4,19,0.00,,BKN017,0.00,VWS V14.01,2013-03-07 15:38:00,
2013-03-07 10:43:00,48.9,8.5,29.90,East,97,3.6,4.0,19,0.00,,BKN017,0.00,VWS V14.01,2013-03-07 15:43:00,
2013-03-07 10:48:00,49.8,9.2,29.90,SW,219,2.7,2.7,19,0.00,,BKN017,0.00,VWS V14.01,2013-03-07 15:48:00,
2013-03-07 10:53:00,50.2,9.5,29.90,North,0,2.2,2.2,19,0.00,,BKN017,0.00,VWS V14.01,2013-03-07 15:53:00,
2013-03-07 10:58:00,50.5,9.8,29.90,WNW,287,5.4,5.4,19,0.00,,BKN017,0.00,VWS V14.01,2013-03-07 15:58:00,
2013-03-07 11:03:00,50.7,10.0,29.90,West,270,2.7,2.7,19,0.00,,CLR,0.00,VWS V14.01,2013-03-07 16:03:00,
2013-03-07 11:08:00,50.7,10.0,29.90,NW,323,2.2,2.7,19,0.00,,CLR,0.00,VWS V14.01,2013-03-07 16:08:00,
2013-03-07 11:13:00,52.0,9.8,29.90,West,277,0.0,4.0,18,0.00,,CLR,0.00,VWS V14.01,2013-03-07 16:13:00,
2013-03-07 11:19:00,52.0,9.8,29.90,NNW,348,2.2,2.2,18,0.00,,CLR,0.00,VWS V14.01,2013-03-07 16:19:00,
2013-03-07 11:24:00,54.7,12.0,29.90,SW,229,0.0,0.0,18,0.00,,CLR,0.00,VWS V14.01,2013-03-07 16:24:00,
2013-03-07 11:29:00,55.6,11.5,29.90,South,186,5.4,5.4,17,0.00,,CLR,0.00,VWS V14.01,2013-03-07 16:29:00,
2013-03-07 11:34:00,56.7,12.4,29.90,SSW,199,2.7,3.1,17,0.00,,CLR,0.00,VWS V14.01,2013-03-07 16:34:00,
2013-03-07 11:39:00,56.8,12.5,29.90,West,267,3.6,3.6,17,0.00,,CLR,0.00,VWS V14.01,2013-03-07 16:39:00,
2013-03-07 11:44:00,55.8,11.6,29.90,South,171,4.0,4.0,17,0.00,,CLR,0.00,VWS V14.01,2013-03-07 16:44:00,
2013-03-07 11:49:00,55.2,12.5,29.90,WSW,239,2.7,3.1,18,0.00,,CLR,0.00,VWS V14.01,2013-03-07 16:49:00,
2013-03-07 11:54:00,56.3,12.1,29.90,South,177,3.6,3.6,17,0.00,,CLR,0.00,VWS V14.01,2013-03-07 16:54:00,
2013-03-07 11:59:00,57.2,12.8,29.90,SW,222,6.3,6.3,17,0.00,,CLR,0.00,VWS V14.01,2013-03-07 16:59:00,
2013-03-07 12:04:00,56.8,12.5,29.90,SSW,210,3.1,3.1,17,0.00,,CLR,0.00,VWS V14.01,2013-03-07 17:04:00,
2013-03-07 12:09:00,58.1,13.5,29.90,South,180,3.6,4.0,17,0.00,,CLR,0.00,VWS V14.01,2013-03-07 17:09:00,
2013-03-07 12:14:00,59.2,14.4,29.90,ESE,109,5.4,5.4,17,0.00,,CLR,0.00,VWS V14.01,2013-03-07 17:14:00,
2013-03-07 12:19:00,59.5,17.3,29.90,South,169,4.0,4.0,19,0.00,,CLR,0.00,VWS V14.01,2013-03-07 17:19:00,
2013-03-07 12:24:00,59.9,15.0,29.90,South,183,6.3,6.3,17,0.00,,CLR,0.00,VWS V14.01,2013-03-07 17:24:00,
2013-03-07 12:29:00,61.5,18.9,29.90,SSE,162,2.7,2.7,19,0.00,,CLR,0.00,VWS V14.01,2013-03-07 17:29:00,
2013-03-07 12:34:00,61.5,18.9,29.90,SW,234,3.1,3.1,19,0.00,,CLR,0.00,VWS V14.01,2013-03-07 17:34:00,
2013-03-07 12:40:00,62.6,18.5,29.90,WSW,258,3.6,4.0,18,0.00,,CLR,0.00,VWS V14.01,2013-03-07 17:40:00,
2013-03-07 12:45:00,63.1,19.0,29.90,ESE,113,2.7,4.0,18,0.00,,CLR,0.00,VWS V14.01,2013-03-07 17:45:00,
2013-03-07 12:50:00,63.3,19.1,29.90,SE,134,5.4,5.4,18,0.00,,CLR,0.00,VWS V14.01,2013-03-07 17:50:00,
2013-03-07 12:55:00,62.6,18.5,29.90,SE,134,2.7,2.7,18,0.00,,CLR,0.00,VWS V14.01,2013-03-07 17:55:00,
2013-03-07 13:00:00,63.0,18.8,29.90,SE,146,4.9,4.9,18,0.00,,CLR,0.00,VWS V14.01,2013-03-07 18:00:00,
2013-03-07 13:05:00,64.2,19.9,29.90,SSW,202,3.1,3.1,18,0.00,,CLR,0.00,VWS V14.01,2013-03-07 18:05:00,
2013-03-07 13:10:00,64.4,20.0,29.90,SSW,210,2.7,2.7,18,0.00,,CLR,0.00,VWS V14.01,2013-03-07 18:10:00,
2013-03-07 13:16:00,64.6,20.1,29.90,South,175,3.1,3.1,18,0.00,,CLR,0.00,VWS V14.01,2013-03-07 18:16:00,
2013-03-07 13:21:00,65.8,21.2,29.90,ESE,108,2.7,2.7,18,0.00,,CLR,0.00,VWS V14.01,2013-03-07 18:21:00,
2013-03-07 13:26:00,66.2,20.1,29.90,WSW,240,2.2,3.6,17,0.00,,CLR,0.00,VWS V14.01,2013-03-07 18:26:00,
2013-03-07 13:31:00,66.0,21.3,29.87,SW,236,2.7,2.7,18,0.00,,CLR,0.00,VWS V14.01,2013-03-07 18:31:00,
2013-03-07 13:36:00,66.6,20.4,29.87,SSW,193,3.1,3.1,17,0.00,,CLR,0.00,VWS V14.01,2013-03-07 18:36:00,
2013-03-07 13:41:00,66.6,20.4,29.87,SSW,210,3.6,3.6,17,0.00,,CLR,0.00,VWS V14.01,2013-03-07 18:41:00,
2013-03-07 13:46:00,66.6,20.4,29.87,SSW,199,5.4,5.4,17,0.00,,CLR,0.00,VWS V14.01,2013-03-07 18:46:00,
2013-03-07 13:51:00,66.6,20.4,29.87,SW,231,2.2,2.2,17,0.00,,CLR,0.00,VWS V14.01,2013-03-07 18:51:00,
2013-03-07 13:56:00,67.1,20.9,29.87,South,171,5.4,5.4,17,0.00,,CLR,0.00,VWS V14.01,2013-03-07 18:56:00,
2013-03-07 14:02:00,67.3,21.0,29.87,SSW,195,2.2,3.1,17,0.00,,CLR,0.00,VWS V14.01,2013-03-07 19:02:00,
2013-03-07 14:07:00,67.6,21.3,29.87,South,178,4.9,4.9,17,0.00,,CLR,0.00,VWS V14.01,2013-03-07 19:07:00,
2013-03-07 14:12:00,67.5,21.2,29.87,South,184,3.1,3.1,17,0.00,,CLR,0.00,VWS V14.01,2013-03-07 19:12:00,
2013-03-07 14:17:00,67.6,21.3,29.87,SSE,165,3.6,3.6,17,0.00,,CLR,0.00,VWS V14.01,2013-03-07 19:17:00,
2013-03-07 14:22:00,68.9,22.3,29.87,ESE,112,3.6,3.6,17,0.00,,CLR,0.00,VWS V14.01,2013-03-07 19:22:00,
2013-03-07 14:27:00,68.5,22.0,29.87,SSE,156,6.3,6.3,17,0.00,,CLR,0.00,VWS V14.01,2013-03-07 19:27:00,
2013-03-07 14:32:00,68.0,21.6,29.87,SSE,155,3.6,3.6,17,0.00,,CLR,0.00,VWS V14.01,2013-03-07 19:32:00,
2013-03-07 14:37:00,67.6,21.3,29.87,SE,126,4.0,4.0,17,0.00,,CLR,0.00,VWS V14.01,2013-03-07 19:37:00,
2013-03-07 14:42:00,68.2,21.7,29.87,SW,224,2.2,2.2,17,0.00,,CLR,0.00,VWS V14.01,2013-03-07 19:42:00,
2013-03-07 14:47:00,68.2,21.7,29.87,SE,135,2.7,2.7,17,0.00,,CLR,0.00,VWS V14.01,2013-03-07 19:47:00,
2013-03-07 14:52:00,68.0,21.6,29.87,SSW,196,5.8,5.8,17,0.00,,CLR,0.00,VWS V14.01,2013-03-07 19:52:00,
2013-03-07 14:58:00,67.5,21.2,29.87,SW,230,3.1,4.0,17,0.00,,CLR,0.00,VWS V14.01,2013-03-07 19:58:00,
2013-03-07 15:03:00,67.5,21.2,29.87,SSE,156,3.6,3.6,17,0.00,,CLR,0.00,VWS V14.01,2013-03-07 20:03:00,
2013-03-07 15:08:00,68.5,22.0,29.87,SE,146,3.6,3.6,17,0.00,,CLR,0.00,VWS V14.01,2013-03-07 20:08:00,
2013-03-07 15:13:00,68.5,22.0,29.87,SSE,154,2.7,2.7,17,0.00,,CLR,0.00,VWS V14.01,2013-03-07 20:13:00,
2013-03-07 15:18:00,68.2,21.7,29.87,South,186,4.0,4.0,17,0.00,,CLR,0.00,VWS V14.01,2013-03-07 20:18:00,
2013-03-07 15:23:00,68.0,21.6,29.87,South,171,2.2,2.2,17,0.00,,CLR,0.00,VWS V14.01,2013-03-07 20:23:00,
2013-03-07 15:28:00,68.4,21.9,29.87,SSW,201,3.1,3.1,17,0.00,,CLR,0.00,VWS V14.01,2013-03-07 20:28:00,
2013-03-07 15:33:00,68.5,22.0,29.87,SW,234,3.1,3.1,17,0.00,,CLR,0.00,VWS V14.01,2013-03-07 20:33:00,
2013-03-07 15:38:00,68.7,22.2,29.87,SW,221,4.9,4.9,17,0.00,,CLR,0.00,VWS V14.01,2013-03-07 20:38:00,
2013-03-07 15:43:00,68.4,21.9,29.87,SE,130,2.7,2.7,17,0.00,,CLR,0.00,VWS V14.01,2013-03-07 20:43:00,
2013-03-07 15:48:00,68.2,21.7,29.87,SW,216,4.0,4.9,17,0.00,,CLR,0.00,VWS V14.01,2013-03-07 20:48:00,
2013-03-07 15:54:00,68.0,21.6,29.87,WSW,252,2.7,3.1,17,0.00,,CLR,0.00,VWS V14.01,2013-03-07 20:54:00,
2013-03-07 15:59:00,68.2,21.7,29.87,South,183,4.9,4.9,17,0.00,,CLR,0.00,VWS V14.01,2013-03-07 20:59:00,
2013-03-07 16:04:00,68.2,21.7,29.87,South,175,0.0,3.1,17,0.00,,CLR,0.00,VWS V14.01,2013-03-07 21:04:00,
2013-03-07 16:09:00,68.2,21.7,29.87,South,170,4.0,4.0,17,0.00,,CLR,0.00,VWS V14.01,2013-03-07 21:09:00,
2013-03-07 16:14:00,67.8,21.5,29.87,South,170,0.0,0.0,17,0.00,,CLR,0.00,VWS V14.01,2013-03-07 21:14:00,
2013-03-07 16:19:00,67.8,21.5,29.87,SSE,158,3.1,4.0,17,0.00,,CLR,0.00,VWS V14.01,2013-03-07 21:19:00,
2013-03-07 16:24:00,67.1,20.9,29.87,South,176,3.6,3.6,17,0.00,,CLR,0.00,VWS V14.01,2013-03-07 21:24:00,
2013-03-07 16:29:00,66.6,20.4,29.87,South,177,3.6,3.6,17,0.00,,CLR,0.00,VWS V14.01,2013-03-07 21:29:00,
2013-03-07 16:34:00,65.8,21.2,29.87,SW,229,3.6,3.6,18,0.00,,CLR,0.00,VWS V14.01,2013-03-07 21:34:00,
2013-03-07 16:39:00,65.7,21.0,29.87,West,263,0.0,0.0,18,0.00,,CLR,0.00,VWS V14.01,2013-03-07 21:39:00,
2013-03-07 16:45:00,65.5,20.9,29.87,SSW,206,2.7,2.7,18,0.00,,CLR,0.00,VWS V14.01,2013-03-07 21:45:00,
2013-03-07 16:50:00,65.5,20.9,29.87,South,169,3.1,3.1,18,0.00,,CLR,0.00,VWS V14.01,2013-03-07 21:50:00,
2013-03-07 16:55:00,63.5,19.3,29.87,ESE,118,3.1,3.1,18,0.00,,CLR,0.00,VWS V14.01,2013-03-07 21:55:00,
2013-03-07 17:00:00,61.9,19.2,29.90,SE,141,2.7,3.1,19,0.00,,CLR,0.00,VWS V14.01,2013-03-07 22:00:00,
2013-03-07 17:05:00,60.3,17.9,29.90,SE,144,2.2,2.2,19,0.00,,CLR,0.00,VWS V14.01,2013-03-07 22:05:00,
2013-03-07 17:10:00,58.8,16.7,29.90,SE,144,0.0,0.0,19,0.00,,CLR,0.00,VWS V14.01,2013-03-07 22:10:00,
2013-03-07 17:15:00,57.2,15.3,29.90,ESE,110,2.7,2.7,19,0.00,,CLR,0.00,VWS V14.01,2013-03-07 22:15:00,
2013-03-07 17:20:00,55.8,11.6,29.90,East,81,2.2,2.2,17,0.00,,CLR,0.00,VWS V14.01,2013-03-07 22:20:00,
2013-03-07 17:25:00,53.6,11.1,29.90,ESE,119,2.2,2.2,18,0.00,,CLR,0.00,VWS V14.01,2013-03-07 22:25:00,
2013-03-07 17:30:00,53.6,11.1,29.90,East,101,2.7,2.7,18,0.00,,CLR,0.00,VWS V14.01,2013-03-07 22:30:00,
2013-03-07 17:36:00,52.3,10.1,29.90,South,172,3.6,3.6,18,0.00,,CLR,0.00,VWS V14.01,2013-03-07 22:36:00,
2013-03-07 17:41:00,51.1,10.3,29.90,East,83,2.7,2.7,19,0.00,,CLR,0.00,VWS V14.01,2013-03-07 22:41:00,
2013-03-07 17:46:00,49.8,9.2,29.90,East,84,2.7,2.7,19,0.00,,CLR,0.00,VWS V14.01,2013-03-07 22:46:00,
2013-03-07 17:51:00,49.1,8.6,29.90,East,100,2.7,2.7,19,0.00,,CLR,0.00,VWS V14.01,2013-03-07 22:51:00,
2013-03-07 17:56:00,48.2,7.9,29.90,ESE,113,2.7,2.7,19,0.00,,CLR,0.00,VWS V14.01,2013-03-07 22:56:00,
2013-03-07 18:01:00,47.7,7.4,29.90,East,88,0.0,0.0,19,0.00,,CLR,0.00,VWS V14.01,2013-03-07 23:01:00,
2013-03-07 18:07:00,46.2,7.4,29.90,East,88,0.0,0.0,20,0.00,,CLR,0.00,VWS V14.01,2013-03-07 23:07:00,
2013-03-07 18:12:00,45.1,6.5,29.90,ESE,117,0.0,0.0,20,0.00,,CLR,0.00,VWS V14.01,2013-03-07 23:12:00,
2013-03-07 18:17:00,44.1,5.6,29.90,ESE,117,0.0,2.2,20,0.00,,CLR,0.00,VWS V14.01,2013-03-07 23:17:00,
2013-03-07 18:22:00,43.5,5.1,29.90,NE,45,3.6,3.6,20,0.00,,CLR,0.00,VWS V14.01,2013-03-07 23:22:00,
2013-03-07 18:27:00,42.1,5.0,29.90,NNE,29,3.6,3.6,21,0.00,,CLR,0.00,VWS V14.01,2013-03-07 23:27:00,
2013-03-07 18:32:00,41.5,4.5,29.90,NNE,30,3.6,3.6,21,0.00,,CLR,0.00,VWS V14.01,2013-03-07 23:32:00,
2013-03-07 18:37:00,41.5,4.5,29.93,NNE,16,3.1,3.1,21,0.00,,CLR,0.00,VWS V14.01,2013-03-07 23:37:00,
2013-03-07 18:42:00,40.5,3.6,29.93,NNE,32,2.7,2.7,21,0.00,,CLR,0.00,VWS V14.01,2013-03-07 23:42:00,
2013-03-07 18:48:00,39.7,3.0,29.93,NNE,32,0.0,0.0,21,0.00,,CLR,0.00,VWS V14.01,2013-03-07 23:48:00,
2013-03-07 18:53:00,39.2,2.6,29.93,NNE,28,5.4,5.4,21,0.00,,CLR,0.00,VWS V14.01,2013-03-07 23:53:00,
2013-03-07 18:58:00,38.8,2.3,29.93,NE,38,3.1,3.1,21,0.00,,CLR,0.00,VWS V14.01,2013-03-07 23:58:00,
2013-03-07 19:03:00,38.8,2.3,29.93,NE,38,0.0,0.0,21,0.00,,CLR,0.00,VWS V14.01,2013-03-08 00:03:00,
2013-03-07 19:08:00,37.6,1.2,29.93,NE,38,0.0,0.0,21,0.00,,CLR,0.00,VWS V14.01,2013-03-08 00:08:00,
2013-03-07 19:13:00,37.2,1.9,29.93,NE,38,0.0,0.0,22,0.00,,CLR,0.00,VWS V14.01,2013-03-08 00:13:00,
2013-03-07 19:18:00,36.9,1.6,29.93,NE,38,0.0,0.0,22,0.00,,CLR,0.00,VWS V14.01,2013-03-08 00:18:00,
2013-03-07 19:23:00,36.5,3.2,29.93,NE,38,0.0,0.0,24,0.00,,CLR,0.00,VWS V14.01,2013-03-08 00:23:00,
2013-03-07 19:28:00,36.3,3.0,29.93,NE,38,0.0,0.0,24,0.00,,CLR,0.00,VWS V14.01,2013-03-08 00:28:00,
2013-03-07 19:33:00,36.1,2.8,29.93,NE,38,0.0,0.0,24,0.00,,CLR,0.00,VWS V14.01,2013-03-08 00:33:00,
2013-03-07 19:38:00,35.8,2.5,29.93,NE,38,0.0,0.0,24,0.00,,CLR,0.00,VWS V14.01,2013-03-08 00:38:00,
2013-03-07 19:43:00,35.6,2.4,29.93,NE,38,0.0,0.0,24,0.00,,CLR,0.00,VWS V14.01,2013-03-08 00:43:00,
2013-03-07 19:48:00,35.4,4.8,29.93,NE,38,0.0,0.0,27,0.00,,CLR,0.00,VWS V14.01,2013-03-08 00:48:00,
2013-03-07 19:53:00,35.2,3.0,29.93,NE,38,0.0,0.0,25,0.00,,CLR,0.00,VWS V14.01,2013-03-08 00:53:00,
2013-03-07 19:58:00,34.9,2.6,29.93,NE,38,0.0,0.0,25,0.00,,CLR,0.00,VWS V14.01,2013-03-08 00:58:00,
2013-03-07 20:04:00,34.7,4.2,29.93,NE,38,0.0,0.0,27,0.00,,CLR,0.00,VWS V14.01,2013-03-08 01:04:00,
2013-03-07 20:09:00,34.5,2.3,29.93,NE,38,0.0,0.0,25,0.00,,CLR,0.00,VWS V14.01,2013-03-08 01:09:00,
2013-03-07 20:14:00,34.3,3.8,29.93,NE,38,0.0,0.0,27,0.00,,CLR,0.00,VWS V14.01,2013-03-08 01:14:00,
2013-03-07 20:19:00,33.8,3.4,29.93,NE,38,0.0,0.0,27,0.00,,CLR,0.00,VWS V14.01,2013-03-08 01:19:00,
2013-03-07 20:24:00,33.4,5.3,29.93,NE,38,0.0,0.0,30,0.00,,CLR,0.00,VWS V14.01,2013-03-08 01:24:00,
2013-03-07 20:29:00,33.4,5.3,29.93,NE,38,0.0,0.0,30,0.00,,CLR,0.00,VWS V14.01,2013-03-08 01:29:00,
2013-03-07 20:34:00,33.4,5.3,29.93,NE,38,0.0,0.0,30,0.00,,CLR,0.00,VWS V14.01,2013-03-08 01:34:00,
2013-03-07 20:39:00,34.2,6.0,29.93,NE,38,2.7,3.1,30,0.00,,CLR,0.00,VWS V14.01,2013-03-08 01:39:00,
2013-03-07 20:44:00,34.2,6.0,29.93,NE,38,2.2,2.2,30,0.00,,CLR,0.00,VWS V14.01,2013-03-08 01:44:00,
2013-03-07 20:49:00,33.8,5.7,29.93,NE,38,2.2,2.2,30,0.00,,CLR,0.00,VWS V14.01,2013-03-08 01:49:00,
2013-03-07 20:54:00,33.8,5.7,29.93,NNE,24,4.0,4.9,30,0.00,,CLR,0.00,VWS V14.01,2013-03-08 01:54:00,
2013-03-07 21:00:00,33.6,5.5,29.93,NNE,24,4.0,4.0,30,0.00,,CLR,0.00,VWS V14.01,2013-03-08 02:00:00,
2013-03-07 21:05:00,33.1,5.0,29.93,NNE,29,3.6,4.0,30,0.00,,CLR,0.00,VWS V14.01,2013-03-08 02:05:00,
2013-03-07 21:10:00,32.7,4.7,29.93,NNE,29,3.6,3.6,30,0.00,,CLR,0.00,VWS V14.01,2013-03-08 02:10:00,
2013-03-07 21:15:00,32.5,5.3,29.93,NNE,29,4.0,4.0,31,0.00,,CLR,0.00,VWS V14.01,2013-03-08 02:15:00,
2013-03-07 21:20:00,32.5,5.3,29.93,NNE,29,4.0,4.0,31,0.00,,CLR,0.00,VWS V14.01,2013-03-08 02:20:00,
2013-03-07 21:25:00,32.7,5.4,29.93,NNE,29,2.7,2.7,31,0.00,,CLR,0.00,VWS V14.01,2013-03-08 02:25:00,
2013-03-07 21:30:00,32.7,5.4,29.96,NNE,29,4.9,4.9,31,0.00,,CLR,0.00,VWS V14.01,2013-03-08 02:30:00,
2013-03-07 21:35:00,32.5,5.3,29.96,NNE,29,3.6,3.6,31,0.00,,CLR,0.00,VWS V14.01,2013-03-08 02:35:00,
2013-03-07 21:40:00,32.5,5.3,29.96,NNE,29,4.0,4.0,31,0.00,,CLR,0.00,VWS V14.01,2013-03-08 02:40:00,
2013-03-07 21:45:00,33.3,5.9,29.96,NNE,23,3.6,3.6,31,0.00,,CLR,0.00,VWS V14.01,2013-03-08 02:45:00,
2013-03-07 21:50:00,33.4,5.3,29.96,NNE,23,4.0,4.0,30,0.00,,CLR,0.00,VWS V14.01,2013-03-08 02:50:00,
2013-03-07 21:55:00,33.6,5.5,29.96,NE,34,3.6,3.6,30,0.00,,CLR,0.00,VWS V14.01,2013-03-08 02:55:00,
2013-03-07 22:01:00,33.6,5.5,29.96,NE,38,2.7,4.0,30,0.00,,CLR,0.00,VWS V14.01,2013-03-08 03:01:00,
2013-03-07 22:06:00,33.6,4.0,29.96,NE,47,2.7,2.7,28,0.00,,CLR,0.00,VWS V14.01,2013-03-08 03:06:00,
2013-03-07 22:11:00,33.6,4.0,29.96,NE,55,3.6,3.6,28,0.00,,CLR,0.00,VWS V14.01,2013-03-08 03:11:00,
2013-03-07 22:16:00,33.6,4.0,29.96,NNE,17,2.2,3.6,28,0.00,,CLR,0.00,VWS V14.01,2013-03-08 03:16:00,
2013-03-07 22:21:00,33.6,4.0,29.96,NNE,26,3.6,3.6,28,0.00,,CLR,0.00,VWS V14.01,2013-03-08 03:21:00,
2013-03-07 22:26:00,33.6,1.6,29.96,ENE,61,3.1,3.1,25,0.00,,CLR,0.00,VWS V14.01,2013-03-08 03:26:00,
2013-03-07 22:31:00,33.3,1.2,29.96,NE,34,2.7,2.7,25,0.00,,CLR,0.00,VWS V14.01,2013-03-08 03:31:00,
2013-03-07 22:36:00,33.1,1.1,29.96,NNE,32,0.0,2.2,25,0.00,,CLR,0.00,VWS V14.01,2013-03-08 03:36:00,
2013-03-07 22:41:00,33.1,1.1,29.96,WNW,290,2.7,2.7,25,0.00,,CLR,0.00,VWS V14.01,2013-03-08 03:41:00,
2013-03-07 22:47:00,33.3,-0.5,29.96,NNE,26,2.2,2.2,23,0.00,,CLR,0.00,VWS V14.01,2013-03-08 03:47:00,
2013-03-07 22:52:00,33.3,-0.5,29.96,NNE,26,3.6,3.6,23,0.00,,CLR,0.00,VWS V14.01,2013-03-08 03:52:00,
2013-03-07 22:57:00,33.3,-0.5,29.96,NNE,31,3.6,3.6,23,0.00,,CLR,0.00,VWS V14.01,2013-03-08 03:57:00,
2013-03-07 23:02:00,33.4,-0.4,29.96,NNE,31,3.6,4.0,23,0.00,,CLR,0.00,VWS V14.01,2013-03-08 04:02:00,
2013-03-07 23:07:00,33.1,1.1,29.96,NNE,28,4.9,4.9,25,0.00,,CLR,0.00,VWS V14.01,2013-03-08 04:07:00,
2013-03-07 23:12:00,32.7,0.8,29.96,NNE,28,3.1,3.1,25,0.00,,CLR,0.00,VWS V14.01,2013-03-08 04:12:00,
2013-03-07 23:17:00,32.5,0.6,29.96,NNE,28,4.0,4.0,25,0.00,,CLR,0.00,VWS V14.01,2013-03-08 04:17:00,
2013-03-07 23:22:00,32.0,0.2,29.96,NNE,32,3.6,3.6,25,0.00,,CLR,0.00,VWS V14.01,2013-03-08 04:22:00,
2013-03-07 23:27:00,32.0,0.2,29.96,NNE,23,3.1,3.1,25,0.00,,CLR,0.00,VWS V14.01,2013-03-08 04:27:00,
2013-03-07 23:32:00,32.5,0.6,29.96,East,84,3.6,3.6,25,0.00,,CLR,0.00,VWS V14.01,2013-03-08 04:32:00,
2013-03-07 23:38:00,32.5,0.6,29.96,NE,42,3.1,3.1,25,0.00,,CLR,0.00,VWS V14.01,2013-03-08 04:38:00,
2013-03-07 23:43:00,33.4,-0.4,29.96,North,0,2.7,3.6,23,0.00,,CLR,0.00,VWS V14.01,2013-03-08 04:43:00,
2013-03-07 23:48:00,33.6,-0.2,29.96,NNE,23,0.0,0.0,23,0.00,,CLR,0.00,VWS V14.01,2013-03-08 04:48:00,
2013-03-07 23:53:00,33.8,-1.0,29.93,North,6,0.0,0.0,22,0.00,,CLR,0.00,VWS V14.01,2013-03-08 04:53:00,
2013-03-07 23:58:00,33.8,-1.0,29.93,NNE,21,3.1,3.1,22,0.00,,CLR,0.00,VWS V14.01,2013-03-08 04:58:00,